Time;durP1;ratioP1;P1;durP2;ratioP2;P2;SDS_P1;SDS_P2;PMS_P1;PMS_P2;Temp;Humidity;BMP_temperature;BMP_pressure;BME280_temperature;BME280_humidity;BME280_pressure;Samples;Min_cycle;Max_cycle;Signal;HPM_P1;HPM_P2
2023/06/07 00:00:25;;;;;;;1999.90;999.90;;;20.10;50.00;;;;;;5042193;28;20178;-68
2023/06/07 00:02:51;;;;;;;1999.90;999.90;;;20.10;52.70;;;;;;5040845;28;20170;-68
2023/06/07 00:05:19;;;;;;;1999.90;999.90;;;20.10;54.10;;;;;;5041940;28;20167;-68
2023/06/07 00:07:45;;;;;;;1999.90;999.90;;;20.10;55.70;;;;;;5041705;28;20388;-68
2023/06/07 00:10:11;;;;;;;1999.90;999.90;;;20.00;57.70;;;;;;5041871;28;21045;-67
2023/06/07 00:12:36;;;;;;;1999.90;999.90;;;20.00;61.00;;;;;;5040269;28;20183;-67
2023/06/07 00:15:02;;;;;;;1999.90;999.90;;;19.90;64.60;;;;;;5040674;28;20413;-68
2023/06/07 00:17:28;;;;;;;1999.90;999.90;;;19.90;69.80;;;;;;5041909;28;20210;-68
2023/06/07 00:19:55;;;;;;;1999.90;999.90;;;19.80;75.20;;;;;;5040521;28;20422;-68
2023/06/07 00:22:21;;;;;;;1999.90;999.90;;;19.80;81.10;;;;;;5040603;28;20262;-68
2023/06/07 00:24:49;;;;;;;1999.90;999.90;;;19.70;85.70;;;;;;5040563;28;20428;-68
2023/06/07 00:27:14;;;;;;;1999.90;999.90;;;19.70;90.10;;;;;;5040065;28;20260;-67
2023/06/07 00:29:40;;;;;;;1999.90;999.90;;;19.60;91.60;;;;;;5039516;28;20432;-68
2023/06/07 00:32:06;;;;;;;1999.90;999.90;;;19.50;93.70;;;;;;5039771;28;20173;-68
2023/06/07 00:34:31;;;;;;;1999.90;999.90;;;19.50;95.90;;;;;;5040401;28;20541;-68
2023/06/07 00:36:57;;;;;;;1999.90;999.90;;;19.40;97.70;;;;;;5040329;28;20572;-68
2023/06/07 00:39:24;;;;;;;1999.90;999.90;;;19.30;98.90;;;;;;5040045;28;20168;-68
2023/06/07 00:41:51;;;;;;;1999.90;999.90;;;19.30;99.90;;;;;;5040020;28;20222;-69
2023/06/07 00:44:17;;;;;;;1999.90;999.90;;;19.30;99.90;;;;;;5040306;28;20402;-68
2023/06/07 00:46:43;;;;;;;1999.90;999.90;;;19.20;99.90;;;;;;5040230;28;20860;-68
2023/06/07 00:49:10;;;;;;;1999.90;999.90;;;19.10;99.90;;;;;;5040974;28;20492;-68
2023/06/07 00:51:36;;;;;;;1999.90;999.90;;;19.10;99.90;;;;;;5040489;28;20846;-68
2023/06/07 00:54:05;;;;;;;1999.90;999.90;;;19.00;99.90;;;;;;5039352;28;20490;-68
2023/06/07 00:56:31;;;;;;;1999.90;999.90;;;18.90;99.90;;;;;;5039744;28;20204;-68
2023/06/07 00:58:57;;;;;;;1999.90;999.90;;;18.80;99.90;;;;;;5039274;28;20404;-67
2023/06/07 01:01:24;;;;;;;1999.90;999.90;;;18.70;99.90;;;;;;5038390;28;20493;-68
2023/06/07 01:03:50;;;;;;;1999.90;999.90;;;18.70;99.90;;;;;;5038705;28;20430;-68
2023/06/07 01:06:16;;;;;;;1999.90;999.90;;;18.70;99.90;;;;;;5038556;28;20514;-68
2023/06/07 01:08:43;;;;;;;1999.90;999.90;;;18.80;99.90;;;;;;5032269;28;20403;-68
2023/06/07 01:11:10;;;;;;;1999.90;999.90;;;18.70;99.90;;;;;;5031847;28;20179;-68
2023/06/07 01:13:38;;;;;;;1999.90;999.90;;;18.70;99.90;;;;;;5032079;28;20407;-68
2023/06/07 01:16:05;;;;;;;1999.90;999.90;;;18.70;99.90;;;;;;5032065;28;20423;-68
2023/06/07 01:18:30;;;;;;;1999.90;999.90;;;18.60;99.90;;;;;;5032020;28;20801;-68
2023/06/07 01:20:58;;;;;;;1999.90;999.90;;;18.60;99.90;;;;;;5031754;28;20386;-68
2023/06/07 01:23:32;;;;;;;1999.90;999.90;;;18.60;99.90;;;;;;5031991;28;20644;-69
2023/06/07 01:25:59;;;;;;;1999.90;999.90;;;18.60;99.90;;;;;;5031809;28;20436;-68
2023/06/07 01:28:26;;;;;;;1999.90;999.90;;;18.60;99.90;;;;;;5031829;28;20493;-68
2023/06/07 01:30:54;;;;;;;1999.90;999.90;;;18.60;99.90;;;;;;5031943;28;20417;-68
2023/06/07 01:33:20;;;;;;;1999.90;999.90;;;18.60;99.90;;;;;;5031801;28;20411;-68
2023/06/07 01:35:50;;;;;;;1999.90;999.90;;;18.60;99.90;;;;;;5031808;28;20454;-69
2023/06/07 01:38:19;;;;;;;1999.90;999.90;;;18.70;99.90;;;;;;5031775;28;21030;-68
2023/06/07 01:40:45;;;;;;;1999.90;999.90;;;18.70;99.90;;;;;;5031570;28;20494;-68
2023/06/07 01:43:11;;;;;;;1999.90;999.90;;;18.70;99.90;;;;;;5031551;28;20404;-68
2023/06/07 01:45:37;;;;;;;1999.90;999.90;;;18.70;99.90;;;;;;5032432;28;20407;-68
2023/06/07 01:48:04;;;;;;;1999.90;999.90;;;18.70;99.90;;;;;;5035800;28;20464;-68
2023/06/07 01:50:30;;;;;;;1999.90;999.90;;;18.70;99.90;;;;;;5035626;28;20201;-68
2023/06/07 01:52:56;;;;;;;1999.90;999.90;;;18.70;99.90;;;;;;5035358;28;20445;-68
2023/06/07 01:55:22;;;;;;;1999.90;999.90;;;18.70;99.90;;;;;;5035327;28;20412;-68
2023/06/07 01:58:08;;;;;;;1999.90;999.90;;;18.80;99.90;;;;;;5035308;28;20186;-68
2023/06/07 02:01:01;;;;;;;1999.90;999.90;;;18.80;99.90;;;;;;5035362;28;20515;-68
2023/06/07 02:03:38;;;;;;;1999.90;999.90;;;18.80;99.90;;;;;;5035299;28;20415;-68
2023/06/07 02:06:08;;;;;;;1999.90;999.90;;;18.70;99.90;;;;;;5035099;28;20444;-68
2023/06/07 02:08:38;;;;;;;1999.90;999.90;;;18.80;99.90;;;;;;5035337;28;20503;-68
2023/06/07 02:11:06;;;;;;;1999.90;999.90;;;18.80;99.90;;;;;;5034971;28;20896;-68
2023/06/07 02:13:36;;;;;;;1999.90;999.90;;;18.70;99.90;;;;;;5035091;28;20604;-68
2023/06/07 02:16:05;;;;;;;1999.90;999.90;;;18.70;99.90;;;;;;5035056;28;20454;-68
2023/06/07 02:18:36;;;;;;;1999.90;999.90;;;18.60;99.90;;;;;;5034982;28;20406;-68
2023/06/07 02:21:02;;;;;;;1999.90;999.90;;;18.60;99.90;;;;;;5034981;28;20448;-68
2023/06/07 02:23:28;;;;;;;1999.90;999.90;;;18.70;99.90;;;;;;5034878;28;20925;-68
2023/06/07 02:25:54;;;;;;;1999.90;999.90;;;18.70;99.90;;;;;;5034759;28;20419;-69
2023/06/07 02:28:19;;;;;;;1999.90;999.90;;;18.70;99.90;;;;;;5034814;28;20176;-68
2023/06/07 02:30:45;;;;;;;1999.90;999.90;;;18.80;99.90;;;;;;5034774;28;20173;-68
2023/06/07 02:33:13;;;;;;;1999.90;999.90;;;18.80;99.90;;;;;;5034531;28;20175;-69
2023/06/07 02:35:40;;;;;;;1999.90;999.90;;;18.70;99.90;;;;;;5034828;28;20602;-68
2023/06/07 02:38:06;;;;;;;1999.90;999.90;;;18.60;99.90;;;;;;5034514;28;20512;-68
2023/06/07 02:40:32;;;;;;;1999.90;999.90;;;18.60;99.90;;;;;;5034533;28;20420;-68
2023/06/07 02:42:58;;;;;;;1999.90;999.90;;;18.40;99.90;;;;;;5034357;28;20808;-69
2023/06/07 02:45:24;;;;;;;1999.90;999.90;;;18.30;99.90;;;;;;5034429;28;20402;-68
2023/06/07 02:47:50;;;;;;;1999.90;999.90;;;18.30;99.90;;;;;;5034460;28;20179;-68
2023/06/07 02:50:16;;;;;;;1999.90;999.90;;;18.20;99.90;;;;;;5034648;28;20190;-68
2023/06/07 02:52:44;;;;;;;1999.90;999.90;;;18.10;99.90;;;;;;5034052;28;20812;-68
2023/06/07 02:55:10;;;;;;;1999.90;999.90;;;18.10;99.90;;;;;;5034423;28;20207;-68
2023/06/07 02:57:35;;;;;;;1999.90;999.90;;;18.10;99.90;;;;;;5033982;28;20500;-68
2023/06/07 03:00:03;;;;;;;1999.90;999.90;;;18.10;99.90;;;;;;5034669;28;20494;-68
2023/06/07 03:02:28;;;;;;;1999.90;999.90;;;18.10;99.90;;;;;;5033876;28;20593;-68
2023/06/07 03:04:56;;;;;;;1999.90;999.90;;;18.20;99.90;;;;;;5034293;28;20404;-68
2023/06/07 03:07:22;;;;;;;1999.90;999.90;;;18.30;99.90;;;;;;5033908;28;20206;-68
2023/06/07 03:09:47;;;;;;;1999.90;999.90;;;18.10;99.90;;;;;;5034147;28;20409;-68
2023/06/07 03:12:13;;;;;;;1999.90;999.90;;;18.00;99.90;;;;;;5033790;28;20660;-68
2023/06/07 03:14:41;;;;;;;1999.90;999.90;;;17.80;99.90;;;;;;5033981;28;20177;-68
2023/06/07 03:17:08;;;;;;;1999.90;999.90;;;17.70;99.90;;;;;;5034001;28;20248;-68
2023/06/07 03:19:34;;;;;;;1999.90;999.90;;;17.60;99.90;;;;;;5033848;28;20500;-68
2023/06/07 03:22:00;;;;;;;1999.90;999.90;;;17.50;99.90;;;;;;5033541;28;20433;-68
2023/06/07 03:24:28;;;;;;;1999.90;999.90;;;17.50;99.90;;;;;;5033774;28;20499;-68
2023/06/07 03:26:54;;;;;;;1999.90;999.90;;;17.60;99.90;;;;;;5033689;28;20797;-68
2023/06/07 03:29:19;;;;;;;1999.90;999.90;;;17.70;99.90;;;;;;5033629;28;20407;-68
2023/06/07 03:31:45;;;;;;;1999.90;999.90;;;17.80;99.90;;;;;;5033383;28;20174;-68
2023/06/07 03:34:11;;;;;;;1999.90;999.90;;;17.80;99.90;;;;;;5033769;28;20677;-68
2023/06/07 03:36:36;;;;;;;1999.90;999.90;;;17.70;99.90;;;;;;5033387;28;20537;-68
2023/06/07 03:39:02;;;;;;;1999.90;999.90;;;17.60;99.90;;;;;;5033620;28;20256;-68
2023/06/07 03:41:28;;;;;;;1999.90;999.90;;;17.50;99.90;;;;;;5033205;28;20210;-68
2023/06/07 03:43:53;;;;;;;1999.90;999.90;;;17.40;99.90;;;;;;5033462;28;20504;-68
2023/06/07 03:46:19;;;;;;;1999.90;999.90;;;17.40;99.90;;;;;;5033308;28;20195;-68
2023/06/07 03:48:45;;;;;;;1999.90;999.90;;;17.30;99.90;;;;;;5033319;28;20168;-68
2023/06/07 03:51:11;;;;;;;1999.90;999.90;;;17.30;99.90;;;;;;5032966;28;20168;-68
2023/06/07 03:53:37;;;;;;;1999.90;999.90;;;17.30;99.90;;;;;;5033373;28;20256;-68
2023/06/07 03:56:04;;;;;;;1999.90;999.90;;;17.40;99.90;;;;;;5033174;28;20255;-68
2023/06/07 03:58:30;;;;;;;1999.90;999.90;;;17.50;99.90;;;;;;5033184;28;20479;-68
2023/06/07 04:00:56;;;;;;;1999.90;999.90;;;17.70;99.90;;;;;;5032820;28;20821;-68
2023/06/07 04:03:24;;;;;;;1999.90;999.90;;;17.80;99.90;;;;;;5033119;28;20216;-68
2023/06/07 04:05:50;;;;;;;1999.90;999.90;;;17.80;99.90;;;;;;5032769;28;20217;-68
2023/06/07 04:08:16;;;;;;;1999.90;999.90;;;17.80;99.90;;;;;;5032589;28;20775;-68
2023/06/07 04:10:42;;;;;;;1999.90;999.90;;;17.80;99.90;;;;;;5032967;28;20418;-68
2023/06/07 04:13:08;;;;;;;1999.90;999.90;;;17.90;99.90;;;;;;5032706;28;20652;-68
2023/06/07 04:15:33;;;;;;;1999.90;999.90;;;17.80;99.90;;;;;;5032864;28;20175;-68
2023/06/07 04:17:59;;;;;;;1999.90;999.90;;;17.90;99.90;;;;;;5032685;28;20655;-68
2023/06/07 04:20:24;;;;;;;1999.90;999.90;;;17.90;99.90;;;;;;5032828;28;20175;-69
2023/06/07 04:22:51;;;;;;;1999.90;999.90;;;18.00;99.90;;;;;;5032417;28;20251;-68
2023/06/07 04:25:21;;;;;;;1999.90;999.90;;;18.10;99.90;;;;;;5032686;28;20175;-68
2023/06/07 04:27:51;;;;;;;1999.90;999.90;;;18.00;99.90;;;;;;5032606;28;20407;-68
2023/06/07 04:30:18;;;;;;;1999.90;999.90;;;17.90;99.90;;;;;;5032816;28;20470;-68
2023/06/07 04:32:44;;;;;;;1999.90;999.90;;;17.80;99.90;;;;;;5032385;28;20420;-68
2023/06/07 04:35:14;;;;;;;1999.90;999.90;;;17.80;99.90;;;;;;5032411;28;20506;-68
2023/06/07 04:37:45;;;;;;;1999.90;999.90;;;17.70;99.90;;;;;;5032448;28;20557;-68
2023/06/07 04:40:11;;;;;;;1999.90;999.90;;;17.70;99.90;;;;;;5032299;28;20404;-68
2023/06/07 04:42:38;;;;;;;1999.90;999.90;;;17.80;99.90;;;;;;5032091;28;20471;-68
2023/06/07 04:45:05;;;;;;;1999.90;999.90;;;17.80;99.90;;;;;;5032464;28;20996;-68
2023/06/07 04:47:32;;;;;;;1999.90;999.90;;;17.90;99.90;;;;;;5032150;28;20419;-68
2023/06/07 04:49:59;;;;;;;1999.90;999.90;;;17.90;99.90;;;;;;5032187;28;20415;-68
2023/06/07 04:52:25;;;;;;;1999.90;999.90;;;18.00;99.90;;;;;;5031975;28;20415;-68
2023/06/07 04:54:51;;;;;;;1999.90;999.90;;;18.10;99.90;;;;;;5032398;28;20411;-68
2023/06/07 04:57:18;;;;;;;1999.90;999.90;;;18.20;99.90;;;;;;5032016;28;20471;-68
2023/06/07 04:59:44;;;;;;;1999.90;999.90;;;18.20;99.90;;;;;;5030811;28;20411;-68
2023/06/07 05:02:10;;;;;;;1999.90;999.90;;;18.20;99.90;;;;;;5031888;28;20407;-67
2023/06/07 05:04:38;;;;;;;1999.90;999.90;;;18.30;99.90;;;;;;5032095;28;20855;-68
2023/06/07 05:07:07;;;;;;;1999.90;999.90;;;18.30;99.90;;;;;;5031861;28;20450;-68
2023/06/07 05:09:33;;;;;;;1999.90;999.90;;;18.30;99.90;;;;;;5031922;28;20405;-68
2023/06/07 05:11:58;;;;;;;1999.90;999.90;;;18.30;99.90;;;;;;5031674;28;20409;-68
2023/06/07 05:14:24;;;;;;;1999.90;999.90;;;18.40;99.90;;;;;;5037576;28;20424;-68
2023/06/07 05:16:51;;;;;;;1999.90;999.90;;;18.50;99.90;;;;;;5037150;28;20255;-68
2023/06/07 05:19:16;;;;;;;1999.90;999.90;;;18.60;99.90;;;;;;5037535;28;20681;-68
2023/06/07 05:21:42;;;;;;;1999.90;999.90;;;18.70;99.90;;;;;;5040470;28;20398;-68
2023/06/07 05:24:08;;;;;;;1999.90;999.90;;;18.70;99.90;;;;;;5041979;28;20269;-68
2023/06/07 05:26:33;;;;;;;1999.90;999.90;;;18.70;99.90;;;;;;5040409;28;20192;-68
2023/06/07 05:28:59;;;;;;;1999.90;999.90;;;18.60;99.90;;;;;;5041401;28;20247;-68
2023/06/07 05:31:26;;;;;;;1999.90;999.90;;;18.60;99.90;;;;;;5040689;28;20177;-68
2023/06/07 05:33:51;;;;;;;1999.90;999.90;;;18.60;99.90;;;;;;5036956;28;20218;-69
2023/06/07 05:36:17;;;;;;;1999.90;999.90;;;18.60;99.90;;;;;;5035699;28;20468;-69
2023/06/07 05:38:43;;;;;;;1999.90;999.90;;;18.60;99.90;;;;;;5035763;28;20183;-68
2023/06/07 05:41:08;;;;;;;1999.90;999.90;;;18.50;99.90;;;;;;5035593;28;20259;-69
2023/06/07 05:43:35;;;;;;;1999.90;999.90;;;18.50;99.90;;;;;;5035716;28;20302;-69
2023/06/07 05:46:00;;;;;;;1999.90;999.90;;;18.60;99.90;;;;;;5035660;28;20252;-68
2023/06/07 05:48:26;;;;;;;1999.90;999.90;;;18.70;99.90;;;;;;5035612;28;20387;-69
2023/06/07 05:50:52;;;;;;;1999.90;999.90;;;18.60;99.90;;;;;;5035441;28;20176;-68
2023/06/07 05:53:17;;;;;;;1999.90;999.90;;;18.70;99.90;;;;;;5035444;28;20596;-69
2023/06/07 05:55:45;;;;;;;1999.90;999.90;;;18.90;99.90;;;;;;5035417;28;20692;-69
2023/06/07 05:58:10;;;;;;;1999.90;999.90;;;19.00;99.90;;;;;;5035509;28;20205;-68
2023/06/07 06:00:36;;;;;;;1999.90;999.90;;;19.10;99.90;;;;;;5035526;28;20523;-69
2023/06/07 06:03:02;;;;;;;1999.90;999.90;;;19.20;99.90;;;;;;5035038;28;20220;-69
2023/06/07 06:05:27;;;;;;;1999.90;999.90;;;19.10;99.90;;;;;;5035091;28;20196;-69
2023/06/07 06:07:57;;;;;;;1999.90;999.90;;;19.20;99.90;;;;;;5035245;28;20181;-69
2023/06/07 06:10:23;;;;;;;1999.90;999.90;;;19.10;99.90;;;;;;5035386;28;20202;-69
2023/06/07 06:12:49;;;;;;;1999.90;999.90;;;19.10;99.90;;;;;;5034930;28;20464;-69
2023/06/07 06:15:15;;;;;;;1999.90;999.90;;;19.20;99.90;;;;;;5035186;28;20405;-69
2023/06/07 06:17:40;;;;;;;1999.90;999.90;;;19.10;99.90;;;;;;5034943;28;20677;-69
2023/06/07 06:20:07;;;;;;;1999.90;999.90;;;19.20;99.90;;;;;;5034960;28;20178;-68
2023/06/07 06:22:33;;;;;;;1999.90;999.90;;;19.20;99.90;;;;;;5034735;28;20661;-68
2023/06/07 06:24:59;;;;;;;1999.90;999.90;;;19.10;99.90;;;;;;5034917;28;20395;-68
2023/06/07 06:27:24;;;;;;;1999.90;999.90;;;19.10;99.90;;;;;;5035007;28;20186;-68
2023/06/07 06:29:50;;;;;;;1999.90;999.90;;;19.10;99.90;;;;;;5035113;28;20233;-68
2023/06/07 06:32:16;;;;;;;1999.90;999.90;;;19.10;99.90;;;;;;5034043;28;20707;-68
2023/06/07 06:34:41;;;;;;;1999.90;999.90;;;19.00;99.90;;;;;;5034702;28;20664;-69
2023/06/07 06:37:07;;;;;;;1999.90;999.90;;;19.00;99.90;;;;;;5034482;28;20212;-68
2023/06/07 06:39:33;;;;;;;1999.90;999.90;;;19.10;99.90;;;;;;5034606;28;20562;-68
2023/06/07 06:41:58;;;;;;;1999.90;999.90;;;19.10;99.90;;;;;;5034367;28;20184;-69
2023/06/07 06:44:24;;;;;;;1999.90;999.90;;;19.10;99.90;;;;;;5038785;28;20533;-68
2023/06/07 06:46:49;;;;;;;1999.90;999.90;;;19.20;99.90;;;;;;5040249;28;20202;-68
2023/06/07 06:49:15;;;;;;;1999.90;999.90;;;19.10;99.90;;;;;;5040159;28;20205;-68
2023/06/07 06:51:41;;;;;;;1999.90;999.90;;;19.10;99.90;;;;;;5039755;28;20184;-68
2023/06/07 06:54:06;;;;;;;1999.90;999.90;;;19.30;99.90;;;;;;5039049;28;20403;-68
2023/06/07 06:56:33;;;;;;;1999.90;999.90;;;19.30;99.90;;;;;;5039518;28;20200;-68
2023/06/07 06:58:59;;;;;;;1999.90;999.90;;;19.40;99.90;;;;;;5039822;28;20170;-68
2023/06/07 07:01:41;;;;;;;1999.90;999.90;;;19.30;99.90;;;;;;5038910;28;20571;-68
2023/06/07 07:04:06;;;;;;;1999.90;999.90;;;19.20;99.90;;;;;;5039543;28;20172;-68
2023/06/07 07:06:32;;;;;;;1999.90;999.90;;;19.20;99.90;;;;;;5038682;28;20541;-68
2023/06/07 07:08:57;;;;;;;1999.90;999.90;;;19.30;99.90;;;;;;5039196;28;20176;-68
2023/06/07 07:11:23;;;;;;;1999.90;999.90;;;19.30;99.90;;;;;;5039412;28;20683;-68
2023/06/07 07:13:48;;;;;;;1999.90;999.90;;;19.40;99.90;;;;;;5039390;28;20178;-68
2023/06/07 07:16:16;;;;;;;1999.90;999.90;;;19.50;99.90;;;;;;5039798;28;20194;-68
2023/06/07 07:18:42;;;;;;;1999.90;999.90;;;19.60;99.90;;;;;;5039903;28;21277;-68
2023/06/07 07:21:07;;;;;;;1999.90;999.90;;;19.60;99.90;;;;;;5037712;28;20405;-68
2023/06/07 07:23:33;;;;;;;1999.90;999.90;;;19.60;99.90;;;;;;5038259;28;20181;-68
2023/06/07 07:25:58;;;;;;;1999.90;999.90;;;19.50;99.90;;;;;;5037286;28;20771;-68
2023/06/07 07:28:24;;;;;;;1999.90;999.90;;;19.30;99.90;;;;;;5038197;28;20590;-68
2023/06/07 07:30:49;;;;;;;1999.90;999.90;;;19.10;99.90;;;;;;5038420;28;20176;-68
2023/06/07 07:33:15;;;;;;;1999.90;999.90;;;19.10;99.90;;;;;;5037988;28;20179;-68
2023/06/07 07:35:41;;;;;;;1999.90;999.90;;;19.20;99.90;;;;;;5037555;28;20204;-69
2023/06/07 07:38:06;;;;;;;1999.90;999.90;;;19.00;99.90;;;;;;5037467;28;20670;-68
2023/06/07 07:40:32;;;;;;;1999.90;999.90;;;18.90;99.90;;;;;;5037519;28;20171;-68
2023/06/07 07:42:58;;;;;;;1999.90;999.90;;;19.00;99.90;;;;;;5036461;28;20170;-67
2023/06/07 07:45:24;;;;;;;1999.90;999.90;;;18.90;99.90;;;;;;5037592;28;20168;-68
2023/06/07 07:47:50;;;;;;;1999.90;999.90;;;18.70;99.90;;;;;;5036681;28;20430;-68
2023/06/07 07:50:16;;;;;;;1999.90;999.90;;;18.70;99.90;;;;;;5038628;28;20453;-68
2023/06/07 07:52:42;;;;;;;1999.90;999.90;;;18.80;99.90;;;;;;5037940;28;20243;-68
2023/06/07 07:55:07;;;;;;;1999.90;999.90;;;18.90;99.90;;;;;;5038051;28;20418;-68
2023/06/07 07:57:33;;;;;;;1999.90;999.90;;;18.80;99.90;;;;;;5037926;28;20204;-68
2023/06/07 07:59:59;;;;;;;1999.90;999.90;;;18.90;99.90;;;;;;5038379;28;20165;-67
2023/06/07 08:02:25;;;;;;;1999.90;999.90;;;19.10;99.90;;;;;;5037338;28;20237;-68
2023/06/07 08:04:53;;;;;;;1999.90;999.90;;;19.20;99.90;;;;;;5038759;28;20203;-68
2023/06/07 08:07:18;;;;;;;1999.90;999.90;;;19.40;99.90;;;;;;5038142;28;20804;-68
2023/06/07 08:09:44;;;;;;;1999.90;999.90;;;19.60;99.90;;;;;;5038178;28;20426;-69
2023/06/07 08:12:10;;;;;;;1999.90;999.90;;;19.60;99.90;;;;;;5036769;28;20166;-68
2023/06/07 08:14:36;;;;;;;1999.90;999.90;;;19.70;99.90;;;;;;5038003;28;20180;-68
2023/06/07 08:17:01;;;;;;;1999.90;999.90;;;19.70;99.90;;;;;;5037038;28;20464;-68
2023/06/07 08:19:27;;;;;;;1999.90;999.90;;;19.50;99.90;;;;;;5037289;28;20217;-68
2023/06/07 08:21:53;;;;;;;1999.90;999.90;;;19.70;99.90;;;;;;5036670;28;20260;-68
2023/06/07 08:24:18;;;;;;;1999.90;999.90;;;19.80;99.90;;;;;;5037175;28;20187;-68
2023/06/07 08:26:48;;;;;;;1999.90;999.90;;;19.90;99.90;;;;;;5033121;28;20200;-69
2023/06/07 08:29:13;;;;;;;1999.90;999.90;;;20.00;99.90;;;;;;5035976;28;20185;-68
2023/06/07 08:31:43;;;;;;;1999.90;999.90;;;20.20;99.90;;;;;;5033085;28;20419;-67
2023/06/07 08:34:10;;;;;;;1999.90;999.90;;;20.30;99.90;;;;;;5034313;28;20197;-68
2023/06/07 08:36:37;;;;;;;1999.90;999.90;;;20.30;99.90;;;;;;5036748;28;20459;-67
2023/06/07 08:39:02;;;;;;;1999.90;999.90;;;20.20;99.90;;;;;;5037479;28;21072;-67
2023/06/07 08:41:28;;;;;;;1999.90;999.90;;;20.00;99.90;;;;;;5036973;28;20415;-67
2023/06/07 08:43:53;;;;;;;1999.90;999.90;;;19.80;99.90;;;;;;5029024;28;20183;-67
2023/06/07 08:46:21;;;;;;;1999.90;999.90;;;19.80;99.90;;;;;;5035548;28;20434;-67
2023/06/07 08:48:50;;;;;;;1999.90;999.90;;;20.10;99.90;;;;;;5035542;28;20183;-67
2023/06/07 08:51:17;;;;;;;1999.90;999.90;;;20.30;99.90;;;;;;5035583;28;20434;-68
2023/06/07 08:53:55;;;;;;;1999.90;999.90;;;20.60;99.90;;;;;;5039344;28;20427;-68
2023/06/07 08:56:23;;;;;;;1999.90;999.90;;;20.70;99.90;;;;;;5032396;28;20452;-68
2023/06/07 08:58:49;;;;;;;1999.90;999.90;;;20.80;99.90;;;;;;5036555;28;21073;-68
2023/06/07 09:01:16;;;;;;;1999.90;999.90;;;20.70;99.90;;;;;;5036631;28;20766;-67
2023/06/07 09:03:42;;;;;;;1999.90;999.90;;;21.00;99.90;;;;;;5038941;28;20444;-67
2023/06/07 09:06:08;;;;;;;1999.90;999.90;;;21.30;99.90;;;;;;5041398;28;20458;-67
2023/06/07 09:08:33;;;;;;;1999.90;999.90;;;21.30;99.90;;;;;;5040230;28;20176;-67
2023/06/07 09:10:59;;;;;;;1999.90;999.90;;;21.60;99.90;;;;;;5030072;28;20457;-69
2023/06/07 09:13:25;;;;;;;1999.90;999.90;;;21.90;99.90;;;;;;5026484;28;20183;-69
2023/06/07 09:15:54;;;;;;;1999.90;999.90;;;22.20;99.90;;;;;;5026900;28;20579;-69
2023/06/07 09:18:20;;;;;;;1999.90;999.90;;;22.50;99.90;;;;;;5026772;28;20517;-69
2023/06/07 09:20:45;;;;;;;1999.90;999.90;;;22.50;99.90;;;;;;5027286;28;20426;-67
2023/06/07 09:23:16;;;;;;;1999.90;999.90;;;22.40;99.90;;;;;;5026227;28;20490;-67
2023/06/07 09:25:45;;;;;;;1999.90;999.90;;;22.30;99.90;;;;;;5025073;28;20205;-69
2023/06/07 09:28:13;;;;;;;1999.90;999.90;;;22.30;99.90;;;;;;5027224;28;20410;-69
2023/06/07 09:30:55;;;;;;;1999.90;999.90;;;22.30;99.90;;;;;;5026980;28;20445;-69
2023/06/07 09:33:33;;;;;;;1999.90;999.90;;;21.90;99.90;;;;;;5025969;28;20430;-69
2023/06/07 09:36:06;;;;;;;1999.90;999.90;;;21.90;99.90;;;;;;5026102;28;20420;-69
2023/06/07 09:38:33;;;;;;;1999.90;999.90;;;22.10;99.90;;;;;;5026550;28;20433;-69
2023/06/07 09:41:02;;;;;;;1999.90;999.90;;;22.40;99.90;;;;;;5026388;28;20412;-69
2023/06/07 09:43:41;;;;;;;1999.90;999.90;;;22.20;99.90;;;;;;5026196;28;20392;-68
2023/06/07 09:46:07;;;;;;;1999.90;999.90;;;21.40;99.90;;;;;;5027404;28;20443;-69
2023/06/07 09:48:46;;;;;;;1999.90;999.90;;;21.10;99.90;;;;;;5024369;28;20403;-69
2023/06/07 09:51:12;;;;;;;1999.90;999.90;;;20.90;99.90;;;;;;5026765;28;20270;-69
2023/06/07 09:53:54;;;;;;;1999.90;999.90;;;20.60;99.90;;;;;;5026016;28;20510;-68
2023/06/07 09:56:21;;;;;;;1999.90;999.90;;;20.50;99.90;;;;;;5025027;28;20225;-69
2023/06/07 09:58:51;;;;;;;1999.90;999.90;;;20.40;99.90;;;;;;5026354;28;20423;-68
2023/06/07 10:01:34;;;;;;;1999.90;999.90;;;20.40;99.90;;;;;;5027450;28;20397;-68
2023/06/07 10:04:04;;;;;;;1999.90;999.90;;;20.50;99.90;;;;;;5025007;28;20835;-68
2023/06/07 10:06:34;;;;;;;1999.90;999.90;;;20.50;99.90;;;;;;5026707;28;20439;-69
2023/06/07 10:09:03;;;;;;;1999.90;999.90;;;20.60;99.90;;;;;;5029619;28;20493;-69
2023/06/07 10:11:34;;;;;;;1999.90;999.90;;;20.50;99.90;;;;;;5029978;28;20986;-69
2023/06/07 10:14:06;;;;;;;1999.90;999.90;;;20.20;99.90;;;;;;5029310;28;20941;-68
2023/06/07 10:16:37;;;;;;;1999.90;999.90;;;19.90;99.90;;;;;;5030118;28;20438;-68
2023/06/07 10:19:27;;;;;;;1999.90;999.90;;;19.80;99.90;;;;;;5030412;28;21129;-69
2023/06/07 10:21:55;;;;;;;1999.90;999.90;;;20.00;99.90;;;;;;5029908;28;20421;-69
2023/06/07 10:24:28;;;;;;;1999.90;999.90;;;20.00;99.90;;;;;;5029827;28;20415;-69
2023/06/07 10:26:59;;;;;;;1999.90;999.90;;;19.50;99.90;;;;;;5028451;28;20535;-69
2023/06/07 10:29:49;;;;;;;1999.90;999.90;;;19.20;99.90;;;;;;5029356;28;20418;-70
2023/06/07 10:32:26;;;;;;;1999.90;999.90;;;19.00;99.90;;;;;;5029806;28;20422;-69
2023/06/07 10:34:54;;;;;;;1999.90;999.90;;;18.70;99.90;;;;;;5029856;28;20778;-68
2023/06/07 10:37:20;;;;;;;1999.90;999.90;;;18.60;99.90;;;;;;5029669;28;20620;-70
2023/06/07 10:39:46;;;;;;;1999.90;999.90;;;18.70;99.90;;;;;;5028544;28;20516;-69
2023/06/07 10:42:13;;;;;;;1999.90;999.90;;;18.80;99.90;;;;;;5030070;28;20581;-69
2023/06/07 10:44:39;;;;;;;1999.90;999.90;;;18.70;99.90;;;;;;5029015;28;21301;-69
2023/06/07 10:47:25;;;;;;;1999.90;999.90;;;18.60;99.90;;;;;;5028199;28;20443;-69
2023/06/07 10:49:51;;;;;;;1999.90;999.90;;;18.50;99.90;;;;;;5028893;28;20425;-69
2023/06/07 10:52:17;;;;;;;1999.90;999.90;;;18.40;99.90;;;;;;5029310;28;20415;-69
2023/06/07 10:54:44;;;;;;;1999.90;999.90;;;18.40;99.90;;;;;;5029109;28;20207;-69
2023/06/07 10:57:10;;;;;;;1999.90;999.90;;;18.30;99.90;;;;;;5028713;28;20526;-68
2023/06/07 10:59:37;;;;;;;1999.90;999.90;;;18.30;99.90;;;;;;5029384;28;20503;-68
2023/06/07 11:02:23;;;;;;;1999.90;999.90;;;18.20;99.90;;;;;;5028722;28;20422;-70
2023/06/07 11:04:53;;;;;;;1999.90;999.90;;;18.10;99.90;;;;;;5029326;28;20442;-69
2023/06/07 11:07:23;;;;;;;1999.90;999.90;;;18.10;99.90;;;;;;5028981;28;20526;-68
2023/06/07 11:10:09;;;;;;;1999.90;999.90;;;18.10;99.90;;;;;;5029498;28;20442;-69
2023/06/07 11:12:34;;;;;;;1999.90;999.90;;;18.20;99.90;;;;;;5029190;28;20442;-68
2023/06/07 11:15:36;;;;;;;1999.90;999.90;;;18.30;99.90;;;;;;5029100;28;20409;-69
2023/06/07 11:18:07;;;;;;;1999.90;999.90;;;18.30;99.90;;;;;;4996275;28;20243;-69
2023/06/07 11:20:38;;;;;;;1999.90;999.90;;;18.40;99.90;;;;;;5028375;28;20473;-69
2023/06/07 11:23:23;;;;;;;1999.90;999.90;;;18.40;99.90;;;;;;5029036;28;20417;-68
2023/06/07 11:26:07;;;;;;;1999.90;999.90;;;18.40;99.90;;;;;;5028404;28;20486;-71
2023/06/07 11:28:34;;;;;;;1999.90;999.90;;;18.70;99.90;;;;;;5028246;28;20411;-69
2023/06/07 11:31:01;;;;;;;1999.90;999.90;;;18.70;99.90;;;;;;5027724;28;20893;-69
2023/06/07 11:33:27;;;;;;;1999.90;999.90;;;18.90;99.90;;;;;;5029120;28;20426;-68
2023/06/07 11:35:54;;;;;;;1999.90;999.90;;;19.10;99.90;;;;;;5028241;28;20978;-69
2023/06/07 11:38:20;;;;;;;1999.90;999.90;;;19.30;99.90;;;;;;5027849;28;20553;-70
2023/06/07 11:40:47;;;;;;;1999.90;999.90;;;19.30;99.90;;;;;;5028112;28;20417;-69
2023/06/07 11:43:13;;;;;;;1999.90;999.90;;;19.60;99.90;;;;;;5028643;28;20416;-68
2023/06/07 11:45:42;;;;;;;1999.90;999.90;;;19.70;99.90;;;;;;5027627;28;20896;-69
2023/06/07 11:48:09;;;;;;;1999.90;999.90;;;19.80;99.90;;;;;;5027731;28;20791;-68
2023/06/07 11:50:38;;;;;;;1999.90;999.90;;;20.20;99.90;;;;;;5028849;28;20409;-70
2023/06/07 11:53:08;;;;;;;1999.90;999.90;;;20.70;99.90;;;;;;5027776;28;20417;-70
2023/06/07 11:55:34;;;;;;;1999.90;999.90;;;21.00;99.90;;;;;;5026526;28;20426;-70
2023/06/07 11:58:05;;;;;;;1999.90;999.90;;;21.10;99.90;;;;;;5028575;28;20801;-69
2023/06/07 12:00:32;;;;;;;1999.90;999.90;;;20.60;99.90;;;;;;5029126;28;20774;-68